Terminal Aerodrome Forecast
Issued by NWS Sterling, VA

Current Version | Previous Version | Graphics & Text | Print | Product List | Glossary On
Versions: 1 2 3 4 5 6 7 8 9 10 11 12 13 14 15 16 17 18 19 20 21 22 23 24 25 26
783
FTUS41 KLWX 051521 AAA
TAFIAD
TAF AMD
KIAD 051521Z 0515/0618 02008KT 3SM -DZ BR BKN008 OVC015
     FM052200 02007KT 5SM -SHRA OVC030
     FM060500 36005KT 3SM SHRA BR OVC008=

USA.gov is the U.S. government's official web portal to all federal, state and local government web resources and services.